createdAt,value
2023-05-04T00:01:04.020Z,4.93
2023-05-04T00:02:08.117Z,4.75
2023-05-04T00:03:13.124Z,4.75
2023-05-04T00:04:18.460Z,4.63
2023-05-04T00:05:23.533Z,4.55
2023-05-04T00:06:27.570Z,4.72
2023-05-04T00:07:31.625Z,4.57
2023-05-04T00:08:35.602Z,5.15
2023-05-04T00:09:40.662Z,4.80
2023-05-04T00:10:45.205Z,5.43
2023-05-04T00:11:50.425Z,4.40
2023-05-04T00:12:54.929Z,4.80
2023-05-04T00:14:02.009Z,4.93
2023-05-04T00:15:06.967Z,5.50
2023-05-04T00:16:11.300Z,5.22
2023-05-04T00:17:15.750Z,5.32
2023-05-04T00:18:19.643Z,5.88
2023-05-04T00:19:24.038Z,5.57
2023-05-04T00:20:27.999Z,5.40
2023-05-04T00:21:32.242Z,4.68
2023-05-04T00:22:36.701Z,5.82
2023-05-04T00:23:40.813Z,5.25
2023-05-04T00:24:44.675Z,3.78
2023-05-04T00:25:49.171Z,4.63
2023-05-04T00:26:53.750Z,4.68
2023-05-04T00:27:58.477Z,4.55
2023-05-04T00:29:02.336Z,4.18
2023-05-04T00:30:07.589Z,4.47
2023-05-04T00:31:12.914Z,4.15
2023-05-04T00:32:17.096Z,3.95
2023-05-04T00:33:21.826Z,5.05
2023-05-04T00:34:26.433Z,4.07
2023-05-04T00:35:32.480Z,4.30
2023-05-04T00:36:36.656Z,4.22
2023-05-04T00:37:40.886Z,3.80
2023-05-04T00:38:52.217Z,4.78
2023-05-04T00:39:56.423Z,3.92
2023-05-04T00:41:01.132Z,3.55
2023-05-04T00:42:05.453Z,4.10
2023-05-04T00:43:09.440Z,3.90
2023-05-04T00:44:14.451Z,4.03
2023-05-04T00:45:18.977Z,3.95
2023-05-04T00:46:23.957Z,3.88
2023-05-04T00:47:29.960Z,3.55
2023-05-04T00:48:35.508Z,3.65
2023-05-04T00:49:40.186Z,2.80
2023-05-04T00:50:44.764Z,5.03
2023-05-04T00:51:50.534Z,3.42
2023-05-04T00:53:00.379Z,3.50
2023-05-04T00:54:05.410Z,2.38
2023-05-04T00:55:11.926Z,3.63
2023-05-04T00:56:17.102Z,3.47
2023-05-04T00:57:21.897Z,3.15
2023-05-04T00:58:27.204Z,3.38
2023-05-04T00:59:31.244Z,2.92
2023-05-04T01:00:36.629Z,3.80
2023-05-04T01:01:42.609Z,2.97
2023-05-04T01:02:46.673Z,3.45
2023-05-04T01:03:52.832Z,3.40
2023-05-04T01:04:57.030Z,3.90
2023-05-04T01:06:37.995Z,2.60
2023-05-04T01:08:04.742Z,3.05
2023-05-04T01:09:21.826Z,2.50
2023-05-04T01:10:41.032Z,2.35
2023-05-04T01:12:19.523Z,3.00
2023-05-04T01:13:25.662Z,3.25
2023-05-04T01:14:31.811Z,2.25
2023-05-04T01:15:36.887Z,2.63
2023-05-04T01:16:41.047Z,3.15
2023-05-04T01:17:44.843Z,2.70
2023-05-04T01:18:48.971Z,2.67
2023-05-04T01:19:54.586Z,2.95
2023-05-04T01:20:58.404Z,3.20
2023-05-04T01:22:02.389Z,2.47
2023-05-04T01:23:06.314Z,2.50
2023-05-04T01:24:11.155Z,2.92
2023-05-04T01:25:15.378Z,2.38
2023-05-04T01:26:32.538Z,2.22
2023-05-04T01:28:05.602Z,2.03
2023-05-04T01:29:24.253Z,2.42
2023-05-04T01:30:39.870Z,2.65
2023-05-04T01:31:46.854Z,2.72
2023-05-04T01:32:52.459Z,2.17
2023-05-04T01:33:57.317Z,2.50
2023-05-04T01:35:03.105Z,1.65
2023-05-04T01:36:08.653Z,2.13
2023-05-04T01:37:13.153Z,2.65
2023-05-04T01:38:19.111Z,2.42
2023-05-04T01:39:23.599Z,2.63
2023-05-04T01:40:27.614Z,2.47
2023-05-04T01:41:31.744Z,2.35
2023-05-04T01:42:35.928Z,2.45
2023-05-04T01:43:41.506Z,2.30
2023-05-04T01:44:46.074Z,2.65
2023-05-04T01:45:50.704Z,2.63
2023-05-04T01:46:55.636Z,2.33
2023-05-04T01:48:00.668Z,1.67
2023-05-04T01:49:05.344Z,2.78
2023-05-04T01:50:10.600Z,2.17
2023-05-04T01:51:16.139Z,2.03
2023-05-04T01:52:20.720Z,1.98
2023-05-04T01:53:25.477Z,2.50
2023-05-04T01:54:29.408Z,2.10
2023-05-04T01:55:33.653Z,3.13
2023-05-04T01:56:39.158Z,2.30
2023-05-04T01:57:43.718Z,2.20
2023-05-04T01:58:47.766Z,2.33
2023-05-04T01:59:52.760Z,2.40
2023-05-04T02:01:00.104Z,2.70
2023-05-04T02:02:04.374Z,2.78
2023-05-04T02:03:09.665Z,2.42
2023-05-04T02:04:15.606Z,2.58
2023-05-04T02:05:19.822Z,1.75
2023-05-04T02:06:24.831Z,2.72
2023-05-04T02:07:29.444Z,1.83
2023-05-04T02:08:33.582Z,1.85
2023-05-04T02:09:38.581Z,2.75
2023-05-04T02:10:43.495Z,1.92
2023-05-04T02:11:47.903Z,2.20
2023-05-04T02:12:52.555Z,2.03
2023-05-04T02:13:56.788Z,2.00
2023-05-04T02:15:00.740Z,2.20
2023-05-04T02:16:07.421Z,2.85
2023-05-04T02:17:12.024Z,2.58
2023-05-04T02:18:16.468Z,1.98
2023-05-04T02:19:20.534Z,1.92
2023-05-04T02:20:25.074Z,2.22
2023-05-04T02:21:31.291Z,2.03
2023-05-04T02:22:35.505Z,2.25
2023-05-04T02:23:39.264Z,1.75
2023-05-04T02:24:44.827Z,2.30
2023-05-04T02:25:49.022Z,2.40
2023-05-04T02:26:54.759Z,2.13
2023-05-04T02:27:59.226Z,1.80
2023-05-04T02:29:04.061Z,2.05
2023-05-04T02:30:09.936Z,2.30
2023-05-04T02:31:14.293Z,2.40
2023-05-04T02:32:19.145Z,2.03
2023-05-04T02:33:23.568Z,2.00
2023-05-04T02:34:28.065Z,2.47
2023-05-04T02:35:32.169Z,2.42
2023-05-04T02:36:36.111Z,1.65
2023-05-04T02:37:40.492Z,2.83
2023-05-04T02:38:44.387Z,1.88
2023-05-04T02:39:48.816Z,2.00
2023-05-04T02:40:53.063Z,1.48
2023-05-04T02:41:56.815Z,2.17
2023-05-04T02:43:01.809Z,1.55
2023-05-04T02:44:05.848Z,2.08
2023-05-04T02:45:11.233Z,2.63
2023-05-04T02:46:15.519Z,2.53
2023-05-04T02:47:20.697Z,1.83
2023-05-04T02:48:25.818Z,1.95
2023-05-04T02:49:29.812Z,2.17
2023-05-04T02:50:34.663Z,1.63
2023-05-04T02:51:38.718Z,2.45
2023-05-04T02:52:44.457Z,1.98
2023-05-04T02:53:49.093Z,1.63
2023-05-04T02:54:53.792Z,1.70
2023-05-04T02:55:58.255Z,2.50
2023-05-04T02:57:03.326Z,2.15
2023-05-04T02:58:07.793Z,1.77
2023-05-04T02:59:11.957Z,2.65
2023-05-04T03:00:17.802Z,2.10
2023-05-04T03:01:21.859Z,2.42
2023-05-04T03:02:26.127Z,2.10
2023-05-04T03:03:30.001Z,2.20
2023-05-04T03:04:34.475Z,2.17
2023-05-04T03:05:39.036Z,1.80
2023-05-04T03:06:44.002Z,2.10
2023-05-04T03:07:48.001Z,1.33
2023-05-04T03:08:52.038Z,2.33
2023-05-04T03:09:56.004Z,2.05
2023-05-04T03:11:00.062Z,1.63
2023-05-04T03:12:04.764Z,2.42
2023-05-04T03:13:09.784Z,2.45
2023-05-04T03:14:13.734Z,2.03
2023-05-04T03:15:20.191Z,1.75
2023-05-04T03:16:24.728Z,2.05
2023-05-04T03:17:28.810Z,2.08
2023-05-04T03:19:54.679Z,1.92
2023-05-04T03:20:59.268Z,1.70
2023-05-04T03:22:03.143Z,1.90
2023-05-04T03:23:07.109Z,2.25
2023-05-04T03:24:11.840Z,1.88
2023-05-04T03:25:15.943Z,1.77
2023-05-04T03:26:20.339Z,1.85
2023-05-04T03:27:25.695Z,1.83
2023-05-04T03:28:30.087Z,2.28
2023-05-04T03:29:34.582Z,2.20
2023-05-04T03:30:39.476Z,2.38
2023-05-04T03:31:43.982Z,2.20
2023-05-04T03:32:49.932Z,3.78
2023-05-04T03:33:54.637Z,5.85
2023-05-04T03:34:59.551Z,4.75
2023-05-04T03:36:05.153Z,5.90
2023-05-04T03:37:09.409Z,4.80
2023-05-04T03:38:13.915Z,2.88
2023-05-04T03:39:18.319Z,2.75
2023-05-04T03:40:24.895Z,2.03
2023-05-04T03:41:29.360Z,4.10
2023-05-04T03:42:33.641Z,4.18
2023-05-04T03:43:37.536Z,4.10
2023-05-04T03:44:42.172Z,4.68
2023-05-04T03:45:47.593Z,4.50
2023-05-04T03:46:51.647Z,2.88
2023-05-04T03:48:00.379Z,2.42
2023-05-04T03:49:04.532Z,2.85
2023-05-04T03:50:10.161Z,2.53
2023-05-04T03:51:14.645Z,2.60
2023-05-04T03:52:18.829Z,1.83
2023-05-04T03:53:22.778Z,1.50
2023-05-04T03:54:28.312Z,1.88
2023-05-04T03:55:32.461Z,2.10
2023-05-04T03:56:36.369Z,2.58
2023-05-04T03:57:42.477Z,1.70
2023-05-04T03:58:46.667Z,1.92
2023-05-04T03:59:51.482Z,2.10
2023-05-04T04:00:56.621Z,1.80
2023-05-04T04:02:02.570Z,2.05
2023-05-04T04:03:07.247Z,1.98
2023-05-04T04:04:12.289Z,2.08
2023-05-04T04:05:16.224Z,2.05
2023-05-04T04:06:20.522Z,1.98
2023-05-04T04:07:24.552Z,2.35
2023-05-04T04:08:29.038Z,1.73
2023-05-04T04:09:32.931Z,1.90
2023-05-04T04:10:37.471Z,1.80
2023-05-04T04:11:45.074Z,1.60
2023-05-04T04:12:49.034Z,2.00
2023-05-04T04:13:53.660Z,2.08
2023-05-04T04:14:58.713Z,1.50
2023-05-04T04:16:03.413Z,1.60
2023-05-04T04:17:07.467Z,1.95
2023-05-04T04:18:11.637Z,1.75
2023-05-04T04:19:15.753Z,2.05
2023-05-04T04:20:19.803Z,1.55
2023-05-04T04:21:25.077Z,1.90
2023-05-04T04:22:29.027Z,2.15
2023-05-04T04:23:32.826Z,1.98
2023-05-04T04:24:36.733Z,1.70
2023-05-04T04:25:43.565Z,1.73
2023-05-04T04:26:52.114Z,2.10
2023-05-04T04:27:56.205Z,1.70
2023-05-04T04:29:00.501Z,2.15
2023-05-04T04:30:06.125Z,2.15
2023-05-04T04:31:11.329Z,1.65
2023-05-04T04:32:16.199Z,1.83
2023-05-04T04:33:20.250Z,2.10
2023-05-04T04:34:24.088Z,1.90
2023-05-04T04:35:28.408Z,2.28
2023-05-04T04:36:33.359Z,1.98
2023-05-04T04:37:38.278Z,2.05
2023-05-04T04:38:42.594Z,2.42
2023-05-04T04:39:49.194Z,1.80
2023-05-04T04:40:53.806Z,2.15
2023-05-04T04:41:57.581Z,1.65
2023-05-04T04:43:03.251Z,1.45
2023-05-04T04:44:12.178Z,2.38
2023-05-04T04:45:17.115Z,2.20
2023-05-04T04:46:21.209Z,1.98
2023-05-04T04:47:25.840Z,1.73
2023-05-04T04:48:29.872Z,1.67
2023-05-04T04:49:34.420Z,1.45
2023-05-04T04:50:40.390Z,2.00
2023-05-04T04:51:45.445Z,2.45
2023-05-04T04:52:50.160Z,2.40
2023-05-04T04:53:54.618Z,2.15
2023-05-04T04:55:00.467Z,1.77
2023-05-04T04:56:06.415Z,2.05
2023-05-04T04:57:11.954Z,2.03
2023-05-04T04:58:19.525Z,1.80
2023-05-04T04:59:25.059Z,1.90
2023-05-04T05:00:31.531Z,2.65
2023-05-04T05:01:36.444Z,1.80
2023-05-04T05:02:41.173Z,1.83
2023-05-04T05:03:48.024Z,1.65
2023-05-04T05:04:53.239Z,2.05
2023-05-04T05:05:58.299Z,2.28
2023-05-04T05:07:02.389Z,1.98
2023-05-04T05:08:06.885Z,2.35
2023-05-04T05:09:12.680Z,2.08
2023-05-04T05:10:16.993Z,2.17
2023-05-04T05:11:21.165Z,2.38
2023-05-04T05:12:26.242Z,1.55
2023-05-04T05:13:32.187Z,1.77
2023-05-04T05:14:38.218Z,1.80
2023-05-04T05:15:42.830Z,1.85
2023-05-04T05:16:47.793Z,1.75
2023-05-04T05:17:52.004Z,1.77
2023-05-04T05:18:56.026Z,1.25
2023-05-04T05:20:00.596Z,2.08
2023-05-04T05:21:06.154Z,1.75
2023-05-04T05:22:10.783Z,1.98
2023-05-04T05:23:15.289Z,1.83
2023-05-04T05:24:19.786Z,1.60
2023-05-04T05:25:25.051Z,1.70
2023-05-04T05:26:29.851Z,1.80
2023-05-04T05:27:39.729Z,1.73
2023-05-04T05:28:43.709Z,2.17
2023-05-04T05:29:48.562Z,2.38
2023-05-04T05:30:53.643Z,1.58
2023-05-04T05:31:58.091Z,1.60
2023-05-04T05:33:04.888Z,1.77
2023-05-04T05:34:09.639Z,1.67
2023-05-04T05:35:25.640Z,1.60
2023-05-04T05:36:29.889Z,1.77
2023-05-04T05:37:33.937Z,1.92
2023-05-04T05:38:38.292Z,1.60
2023-05-04T05:39:43.008Z,1.52
2023-05-04T05:40:49.118Z,1.83
2023-05-04T05:41:58.103Z,1.85
2023-05-04T05:43:03.383Z,1.80
2023-05-04T05:44:08.106Z,2.10
2023-05-04T05:45:13.197Z,1.52
2023-05-04T05:46:18.553Z,1.60
2023-05-04T05:47:22.626Z,1.95
2023-05-04T05:48:26.564Z,1.25
2023-05-04T05:49:30.920Z,2.38
2023-05-04T05:50:35.235Z,1.60
2023-05-04T05:51:38.989Z,1.63
2023-05-04T05:52:43.093Z,1.88
2023-05-04T05:53:47.147Z,2.08
2023-05-04T05:54:51.052Z,1.77
2023-05-04T05:55:54.836Z,1.90
2023-05-04T05:57:00.238Z,1.80
2023-05-04T05:58:05.832Z,1.83
2023-05-04T05:59:09.853Z,2.00
2023-05-04T06:00:15.389Z,2.80
2023-05-04T06:01:20.297Z,1.70
2023-05-04T06:02:24.895Z,1.98
2023-05-04T06:03:29.271Z,1.95
2023-05-04T06:04:33.225Z,2.20
2023-05-04T06:05:37.239Z,1.38
2023-05-04T06:06:42.643Z,2.33
2023-05-04T06:07:47.884Z,1.80
2023-05-04T06:08:51.890Z,2.17
2023-05-04T06:09:56.815Z,1.25
2023-05-04T06:11:01.176Z,1.88
2023-05-04T06:12:07.685Z,1.83
2023-05-04T06:13:13.256Z,2.30
2023-05-04T06:14:18.602Z,1.50
2023-05-04T06:15:30.047Z,1.25
2023-05-04T06:16:38.888Z,2.25
2023-05-04T06:17:45.333Z,1.38
2023-05-04T06:18:50.769Z,1.50
2023-05-04T06:19:55.154Z,1.98
2023-05-04T06:21:01.718Z,1.30
2023-05-04T06:22:07.163Z,1.40
2023-05-04T06:23:11.432Z,1.50
2023-05-04T06:24:17.492Z,1.58
2023-05-04T06:25:22.800Z,1.67
2023-05-04T06:26:33.537Z,1.67
2023-05-04T06:27:38.020Z,1.67
2023-05-04T06:28:43.129Z,1.23
2023-05-04T06:29:48.143Z,1.70
2023-05-04T06:30:54.424Z,2.22
2023-05-04T06:32:00.304Z,1.08
2023-05-04T06:33:05.591Z,1.45
2023-05-04T06:34:10.798Z,1.52
2023-05-04T06:35:16.058Z,2.00
2023-05-04T06:37:47.681Z,1.45
2023-05-04T06:38:52.183Z,1.35
2023-05-04T06:39:57.642Z,1.35
2023-05-04T06:41:03.969Z,1.90
2023-05-04T06:42:08.709Z,2.03
2023-05-04T06:43:13.396Z,1.35
2023-05-04T06:44:18.603Z,1.75
2023-05-04T06:45:23.665Z,1.92
2023-05-04T06:46:28.107Z,1.40
2023-05-04T06:47:35.983Z,1.65
2023-05-04T06:48:40.754Z,2.03
2023-05-04T06:49:45.629Z,1.27
2023-05-04T06:50:50.245Z,1.70
2023-05-04T06:51:55.613Z,1.13
2023-05-04T06:53:12.379Z,1.20
2023-05-04T06:54:16.656Z,1.80
2023-05-04T06:55:22.029Z,1.70
2023-05-04T06:56:27.199Z,1.35
2023-05-04T06:57:33.072Z,1.63
2023-05-04T06:58:38.637Z,1.65
2023-05-04T06:59:43.798Z,1.55
2023-05-04T07:00:53.699Z,1.55
2023-05-04T07:02:01.094Z,1.35
2023-05-04T07:03:06.972Z,1.20
2023-05-04T07:04:26.628Z,1.83
2023-05-04T07:21:45.489Z,1.30
2023-05-04T07:22:49.212Z,2.08
2023-05-04T07:23:53.043Z,1.38
2023-05-04T07:24:58.595Z,1.30
2023-05-04T07:26:04.595Z,1.92
2023-05-04T07:27:08.564Z,1.50
2023-05-04T07:28:13.042Z,1.73
2023-05-04T07:29:17.019Z,1.25
2023-05-04T07:30:22.306Z,1.40
2023-05-04T07:31:30.647Z,1.10
2023-05-04T07:32:35.024Z,1.80
2023-05-04T07:33:41.466Z,1.63
2023-05-04T07:34:47.205Z,1.30
2023-05-04T07:35:51.167Z,1.10
2023-05-04T07:36:55.295Z,1.77
2023-05-04T07:37:59.532Z,1.20
2023-05-04T07:39:03.777Z,1.10
2023-05-04T07:40:09.870Z,1.40
2023-05-04T07:41:13.825Z,1.38
2023-05-04T07:42:18.400Z,1.23
2023-05-04T07:43:24.756Z,1.20
2023-05-04T07:44:28.625Z,1.40
2023-05-04T07:45:32.344Z,1.38
2023-05-04T07:46:38.631Z,1.42
2023-05-04T07:47:45.179Z,1.20
2023-05-04T07:48:49.632Z,1.17
2023-05-04T07:49:53.817Z,1.38
2023-05-04T07:50:57.918Z,1.52
2023-05-04T07:52:01.718Z,1.40
2023-05-04T07:53:05.873Z,1.30
2023-05-04T07:54:10.494Z,0.98
2023-05-04T07:55:14.294Z,1.65
2023-05-04T07:56:18.120Z,1.35
2023-05-04T07:57:22.736Z,1.58
2023-05-04T07:58:26.610Z,1.50
2023-05-04T07:59:32.398Z,0.93
2023-05-04T08:00:38.064Z,1.50
2023-05-04T08:01:44.015Z,1.27
2023-05-04T08:02:48.908Z,1.45
2023-05-04T08:03:52.848Z,1.27
2023-05-04T08:04:56.604Z,1.65
2023-05-04T08:06:00.441Z,1.80
2023-05-04T08:07:06.117Z,1.80
2023-05-04T08:08:10.045Z,1.40
2023-05-04T08:09:14.485Z,1.50
2023-05-04T08:10:18.920Z,1.38
2023-05-04T08:11:23.111Z,1.55
2023-05-04T08:12:27.307Z,1.38
2023-05-04T08:13:31.450Z,1.38
2023-05-04T08:14:38.135Z,1.83
2023-05-04T08:15:43.050Z,1.40
2023-05-04T08:16:47.874Z,1.17
2023-05-04T08:17:52.244Z,1.50
2023-05-04T08:18:57.483Z,1.40
2023-05-04T08:20:02.096Z,1.45
2023-05-04T08:21:06.420Z,1.83
2023-05-04T08:22:18.099Z,1.63
2023-05-04T08:23:22.376Z,1.60
2023-05-04T08:24:26.141Z,1.60
2023-05-04T08:25:33.893Z,1.50
2023-05-04T08:26:38.894Z,1.70
2023-05-04T08:27:42.851Z,1.50
2023-05-04T08:28:47.639Z,1.30
2023-05-04T08:29:51.674Z,1.17
2023-05-04T08:30:56.760Z,1.45
2023-05-04T08:32:01.431Z,1.23
2023-05-04T08:33:06.279Z,0.80
2023-05-04T08:34:10.567Z,1.27
2023-05-04T08:35:14.511Z,1.13
2023-05-04T08:36:18.953Z,1.10
2023-05-04T08:37:23.051Z,1.40
2023-05-04T08:38:27.041Z,1.00
2023-05-04T08:39:30.941Z,1.35
2023-05-04T08:40:35.315Z,1.42
2023-05-04T08:41:42.387Z,1.23
2023-05-04T08:42:50.768Z,1.13
2023-05-04T08:43:55.649Z,1.48
2023-05-04T08:45:00.524Z,1.10
2023-05-04T08:46:05.066Z,1.30
2023-05-04T08:47:09.188Z,1.15
2023-05-04T08:48:14.531Z,1.58
2023-05-04T08:49:23.111Z,1.23
2023-05-04T08:50:27.493Z,1.27
2023-05-04T08:51:36.396Z,1.35
2023-05-04T08:52:49.090Z,0.98
2023-05-04T08:53:54.839Z,1.02
2023-05-04T08:55:00.438Z,1.48
2023-05-04T08:56:13.435Z,1.23
2023-05-04T08:57:18.350Z,1.40
2023-05-04T08:58:25.735Z,1.00
2023-05-04T08:59:32.348Z,1.17
2023-05-04T09:00:38.749Z,1.60
2023-05-04T09:01:43.503Z,1.30
2023-05-04T09:02:49.708Z,1.67
2023-05-04T09:03:54.994Z,1.23
2023-05-04T09:05:01.924Z,1.33
2023-05-04T09:06:09.229Z,1.33
2023-05-04T09:07:13.538Z,1.13
2023-05-04T09:08:18.896Z,1.63
2023-05-04T09:09:26.679Z,1.73
2023-05-04T09:10:31.876Z,1.42
2023-05-04T09:11:36.186Z,1.10
2023-05-04T09:12:40.478Z,1.38
2023-05-04T09:13:45.986Z,1.15
2023-05-04T09:14:50.095Z,1.42
2023-05-04T09:15:58.950Z,1.38
2023-05-04T09:17:12.457Z,1.70
2023-05-04T09:18:16.398Z,1.55
2023-05-04T09:19:21.376Z,1.17
2023-05-04T09:20:28.520Z,1.63
2023-05-04T09:21:34.966Z,1.40
2023-05-04T09:22:39.180Z,1.15
2023-05-04T09:23:54.186Z,1.33
2023-05-04T09:25:13.052Z,1.27
2023-05-04T09:26:31.610Z,1.40
2023-05-04T09:27:35.851Z,1.17
2023-05-04T09:28:40.193Z,1.52
2023-05-04T09:29:45.190Z,1.20
2023-05-04T09:30:49.577Z,1.55
2023-05-04T09:31:53.325Z,1.33
2023-05-04T09:33:00.720Z,1.20
2023-05-04T09:34:11.001Z,1.73
2023-05-04T09:35:29.364Z,1.10
2023-05-04T09:36:38.371Z,1.45
2023-05-04T09:37:47.195Z,1.70
2023-05-04T09:38:50.923Z,1.35
2023-05-04T09:39:59.636Z,1.73
2023-05-04T09:41:03.466Z,1.70
2023-05-04T09:42:19.303Z,1.73
2023-05-04T09:43:24.779Z,1.30
2023-05-04T09:44:29.898Z,1.88
2023-05-04T09:45:41.632Z,1.60
2023-05-04T09:47:06.049Z,1.63
2023-05-04T09:48:36.368Z,1.90
2023-05-04T09:49:40.629Z,1.50
2023-05-04T09:51:03.386Z,1.60
2023-05-04T09:52:07.891Z,2.03
2023-05-04T09:53:14.702Z,1.60
2023-05-04T09:54:19.897Z,1.20
2023-05-04T09:55:26.559Z,1.48
2023-05-04T09:56:30.296Z,1.73
2023-05-04T09:57:36.432Z,1.77
2023-05-04T09:58:43.382Z,1.27
2023-05-04T09:59:47.932Z,1.63
2023-05-04T10:00:57.477Z,2.08
2023-05-04T10:02:14.493Z,1.30
2023-05-04T10:03:28.318Z,1.52
2023-05-04T10:04:34.551Z,1.77
2023-05-04T10:05:40.194Z,1.52
2023-05-04T10:06:45.316Z,1.67
2023-05-04T10:07:50.243Z,2.15
2023-05-04T10:08:54.036Z,1.50
2023-05-04T10:10:01.668Z,1.33
2023-05-04T10:11:06.200Z,1.13
2023-05-04T10:12:10.450Z,1.20
2023-05-04T10:13:17.536Z,1.55
2023-05-04T10:14:22.329Z,1.40
2023-05-04T10:15:27.063Z,1.67
2023-05-04T10:16:55.467Z,2.10
2023-05-04T10:18:48.396Z,1.67
2023-05-04T10:20:49.511Z,1.70
2023-05-04T10:23:08.776Z,1.40
2023-05-04T10:24:54.212Z,1.50
2023-05-04T10:26:19.126Z,1.90
2023-05-04T10:27:57.443Z,1.85
2023-05-04T10:29:23.910Z,2.15
2023-05-04T10:30:29.013Z,1.45
2023-05-04T10:31:44.230Z,1.65
2023-05-04T10:32:59.049Z,1.80
2023-05-04T10:34:03.217Z,1.90
2023-05-04T10:35:11.574Z,1.55
2023-05-04T10:36:15.790Z,1.90
2023-05-04T10:37:22.229Z,1.60
2023-05-04T10:38:40.877Z,2.10
2023-05-04T10:39:57.015Z,1.73
2023-05-04T10:41:01.019Z,1.60
2023-05-04T10:42:10.647Z,1.88
2023-05-04T10:43:25.599Z,1.83
2023-05-04T10:44:32.629Z,1.63
2023-05-04T10:45:41.944Z,1.83
2023-05-04T10:47:05.783Z,1.60
2023-05-04T10:48:11.079Z,1.80
2023-05-04T10:49:18.211Z,1.90
2023-05-04T10:50:22.473Z,1.77
2023-05-04T10:51:35.683Z,1.60
2023-05-04T10:52:54.387Z,1.98
2023-05-04T10:54:01.452Z,2.13
2023-05-04T10:55:09.163Z,1.98
2023-05-04T10:56:26.507Z,2.17
2023-05-04T10:57:31.612Z,2.00
2023-05-04T10:58:35.634Z,1.60
2023-05-04T10:59:43.076Z,1.73
2023-05-04T11:00:51.857Z,1.88
2023-05-04T11:01:55.750Z,1.25
2023-05-04T11:03:04.528Z,1.63
2023-05-04T11:04:22.931Z,2.28
2023-05-04T11:05:27.548Z,1.83
2023-05-04T11:06:31.384Z,1.45
2023-05-04T11:07:40.381Z,1.60
2023-05-04T11:08:49.729Z,1.77
2023-05-04T11:09:54.096Z,1.52
2023-05-04T11:11:09.966Z,1.38
2023-05-04T11:12:19.575Z,1.85
2023-05-04T11:13:25.356Z,1.52
2023-05-04T11:14:29.684Z,1.90
2023-05-04T11:15:44.550Z,1.60
2023-05-04T11:16:49.288Z,1.70
2023-05-04T11:17:54.673Z,1.90
2023-05-04T11:19:12.948Z,1.55
2023-05-04T11:20:27.928Z,1.83
2023-05-04T11:21:32.104Z,1.85
2023-05-04T11:22:47.016Z,1.83
2023-05-04T11:24:01.804Z,2.15
2023-05-04T11:25:06.860Z,1.70
2023-05-04T11:26:12.625Z,1.67
2023-05-04T11:27:24.800Z,1.75
2023-05-04T11:28:42.089Z,1.60
2023-05-04T11:30:03.896Z,2.00
2023-05-04T11:31:16.319Z,2.10
2023-05-04T11:32:20.536Z,1.92
2023-05-04T11:33:28.315Z,1.90
2023-05-04T11:34:32.353Z,2.33
2023-05-04T11:35:36.719Z,1.90
2023-05-04T11:36:44.895Z,1.80
2023-05-04T11:37:54.120Z,2.05
2023-05-04T11:38:58.633Z,1.70
2023-05-04T11:40:03.028Z,1.25
2023-05-04T11:41:09.602Z,1.40
2023-05-04T11:42:16.554Z,1.50
2023-05-04T11:43:24.982Z,1.88
2023-05-04T11:44:30.296Z,2.05
2023-05-04T11:45:38.002Z,1.35
2023-05-04T11:46:43.782Z,1.40
2023-05-04T11:47:49.726Z,1.45
2023-05-04T11:48:54.514Z,1.80
2023-05-04T11:49:58.560Z,1.52
2023-05-04T11:51:07.528Z,1.25
2023-05-04T11:52:12.544Z,1.80
2023-05-04T11:53:25.569Z,1.60
2023-05-04T11:54:29.206Z,1.65
2023-05-04T11:55:33.272Z,1.65
2023-05-04T11:56:44.695Z,1.88
2023-05-04T11:58:04.932Z,1.52
2023-05-04T11:59:12.628Z,1.52
2023-05-04T12:00:18.145Z,2.10
2023-05-04T12:01:21.855Z,2.22
2023-05-04T12:02:27.275Z,1.75
2023-05-04T12:04:41.586Z,2.22
2023-05-04T12:05:52.972Z,1.50
2023-05-04T12:06:56.938Z,1.77
2023-05-04T12:08:03.589Z,1.50
2023-05-04T12:09:07.824Z,1.27
2023-05-04T12:10:12.304Z,1.20
2023-05-04T12:11:25.678Z,2.10
2023-05-04T12:12:36.576Z,1.80
2023-05-04T12:13:42.601Z,1.33
2023-05-04T12:14:58.119Z,1.85
2023-05-04T12:16:21.374Z,1.48
2023-05-04T12:17:25.475Z,1.55
2023-05-04T12:18:30.245Z,1.65
2023-05-04T12:19:51.934Z,1.95
2023-05-04T12:20:56.515Z,1.50
2023-05-04T12:22:03.353Z,1.58
2023-05-04T12:23:09.765Z,1.50
2023-05-04T12:24:15.066Z,1.40
2023-05-04T12:25:21.087Z,1.48
2023-05-04T12:26:29.948Z,1.98
2023-05-04T12:27:34.140Z,1.40
2023-05-04T12:28:40.196Z,1.60
2023-05-04T12:29:43.892Z,1.55
2023-05-04T12:30:50.102Z,1.45
2023-05-04T12:31:54.038Z,1.08
2023-05-04T12:32:57.937Z,1.55
2023-05-04T12:34:03.462Z,1.40
2023-05-04T12:35:09.319Z,1.80
2023-05-04T12:36:14.294Z,2.03
2023-05-04T12:37:18.230Z,1.40
2023-05-04T12:38:22.635Z,1.42
2023-05-04T12:39:33.534Z,1.55
2023-05-04T12:40:40.789Z,1.65
2023-05-04T12:41:45.810Z,1.42
2023-05-04T12:42:49.723Z,1.40
2023-05-04T12:43:54.375Z,1.65
2023-05-04T12:44:59.032Z,2.15
2023-05-04T12:46:03.510Z,1.48
2023-05-04T12:47:07.853Z,1.40
2023-05-04T12:48:13.447Z,1.65
2023-05-04T12:49:17.779Z,1.85
2023-05-04T12:50:21.489Z,1.27
2023-05-04T12:51:25.705Z,1.95
2023-05-04T12:52:29.845Z,1.30
2023-05-04T12:53:33.911Z,1.52
2023-05-04T12:54:37.730Z,1.13
2023-05-04T12:55:41.881Z,1.70
2023-05-04T12:56:46.326Z,1.60
2023-05-04T12:57:50.602Z,1.70
2023-05-04T12:58:54.590Z,1.50
2023-05-04T12:59:58.397Z,1.52
2023-05-04T13:01:03.876Z,1.45
2023-05-04T13:02:08.696Z,1.73
2023-05-04T13:03:13.664Z,1.60
2023-05-04T13:04:18.124Z,1.27
2023-05-04T13:05:23.459Z,1.38
2023-05-04T13:06:27.876Z,1.60
2023-05-04T13:07:31.993Z,1.20
2023-05-04T13:08:45.028Z,1.23
2023-05-04T13:09:58.314Z,1.50
2023-05-04T13:11:03.039Z,1.35
2023-05-04T13:12:08.801Z,1.55
2023-05-04T13:13:23.696Z,1.08
2023-05-04T13:14:39.322Z,1.60
2023-05-04T13:15:51.391Z,1.30
2023-05-04T13:16:55.618Z,1.55
2023-05-04T13:18:00.690Z,1.63
2023-05-04T13:19:05.052Z,1.67
2023-05-04T13:20:27.485Z,1.40
2023-05-04T13:21:31.334Z,1.20
2023-05-04T13:22:39.027Z,1.48
2023-05-04T13:23:42.989Z,1.48
2023-05-04T13:24:46.671Z,1.30
2023-05-04T13:25:51.947Z,1.58
2023-05-04T13:26:56.258Z,1.52
2023-05-04T13:28:00.235Z,1.50
2023-05-04T13:29:05.252Z,1.98
2023-05-04T13:30:11.007Z,1.02
2023-05-04T13:31:18.014Z,1.48
2023-05-04T13:32:22.606Z,1.45
2023-05-04T13:33:30.215Z,1.63
2023-05-04T13:34:35.006Z,1.38
2023-05-04T13:35:38.760Z,1.20
2023-05-04T13:36:44.158Z,1.73
2023-05-04T13:37:48.288Z,1.15
2023-05-04T13:38:53.068Z,1.40
2023-05-04T13:39:57.140Z,1.40
2023-05-04T13:41:04.830Z,1.13
2023-05-04T13:42:12.763Z,1.30
2023-05-04T13:43:16.904Z,1.13
2023-05-04T13:44:31.470Z,1.50
2023-05-04T13:45:39.597Z,1.45
2023-05-04T13:46:44.598Z,1.48
2023-05-04T13:47:49.155Z,1.67
2023-05-04T13:48:55.179Z,1.20
2023-05-04T13:50:03.014Z,1.45
2023-05-04T13:51:06.980Z,1.45
2023-05-04T13:52:11.946Z,1.50
2023-05-04T13:53:16.297Z,1.38
2023-05-04T13:54:20.078Z,1.08
2023-05-04T13:55:24.884Z,1.15
2023-05-04T13:56:28.647Z,1.08
2023-05-04T13:57:32.929Z,1.35
2023-05-04T13:58:36.831Z,1.27
2023-05-04T13:59:43.085Z,1.05
2023-05-04T14:00:50.377Z,1.35
2023-05-04T14:01:54.705Z,1.20
2023-05-04T14:02:58.854Z,1.40
2023-05-04T14:04:03.753Z,1.33
2023-05-04T14:05:08.529Z,1.23
2023-05-04T14:06:12.643Z,1.20
2023-05-04T14:07:17.693Z,1.45
2023-05-04T14:08:21.627Z,1.15
2023-05-04T14:09:28.714Z,1.38
2023-05-04T14:10:35.441Z,1.90
2023-05-04T14:11:40.905Z,1.38
2023-05-04T14:12:45.093Z,1.00
2023-05-04T14:13:49.526Z,1.38
2023-05-04T14:14:53.477Z,1.25
2023-05-04T14:15:58.541Z,1.70
2023-05-04T14:17:02.996Z,1.70
2023-05-04T14:18:06.897Z,1.17
2023-05-04T14:19:10.817Z,1.38
2023-05-04T14:20:15.122Z,1.67
2023-05-04T14:21:18.965Z,1.30
2023-05-04T14:22:23.332Z,1.58
2023-05-04T14:23:28.148Z,1.35
2023-05-04T14:24:33.036Z,1.50
2023-05-04T14:25:37.819Z,1.30
2023-05-04T14:26:46.811Z,1.30
2023-05-04T14:27:51.443Z,1.48
2023-05-04T14:28:55.245Z,1.13
2023-05-04T14:29:59.082Z,1.30
2023-05-04T14:31:08.918Z,1.20
2023-05-04T14:32:12.808Z,1.20
2023-05-04T14:33:16.869Z,1.52
2023-05-04T14:34:21.106Z,1.40
2023-05-04T14:35:25.670Z,1.35
2023-05-04T14:36:29.893Z,1.60
2023-05-04T14:37:37.949Z,1.58
2023-05-04T14:38:42.935Z,1.13
2023-05-04T14:39:47.479Z,1.40
2023-05-04T14:40:53.091Z,1.20
2023-05-04T14:42:00.705Z,1.20
2023-05-04T14:43:04.800Z,1.30
2023-05-04T14:44:08.493Z,1.30
2023-05-04T14:45:12.774Z,2.58
2023-05-04T14:46:16.625Z,2.38
2023-05-04T14:47:20.896Z,1.60
2023-05-04T14:48:26.722Z,1.73
2023-05-04T14:50:40.116Z,2.00
2023-05-04T14:51:43.963Z,1.60
2023-05-04T14:52:48.066Z,1.35
2023-05-04T14:53:52.839Z,1.60
2023-05-04T14:54:57.134Z,1.40
2023-05-04T14:56:02.433Z,1.30
2023-05-04T14:57:09.173Z,1.25
2023-05-04T14:58:15.054Z,2.05
2023-05-04T14:59:19.832Z,1.33
2023-05-04T15:00:23.795Z,1.23
2023-05-04T15:01:30.535Z,1.60
2023-05-04T15:02:35.392Z,1.10
2023-05-04T15:03:40.411Z,1.65
2023-05-04T15:04:45.868Z,1.67
2023-05-04T15:05:50.670Z,2.10
2023-05-04T15:06:54.458Z,1.95